Chitose — JD2925 — position and weather

sailwx.info

Track history (hours):
 
Tides and Currents Weather Stations Pressure Air Temp Water Temp Dewpoint Dewpoint Depression Visibility Wind Speed Wind Dir Waves Ship Positions

Chitose

Last reported at 2014-Sep-30 21:33 UTC. Time now 2014-Sep-30 22:04 UTC.
Position N 35°27' E 139°42'.

Length 33 m; draft 3.8 m.

Type: Tug. MMSI: 431000953.

Date/timePositionNaut miles runAvg speedWind from/ knotsBaromVisibWave heightAir tempDewpointWater temp
2014-Sep-30 21:33N 35°27' E 139°42'2 1.9
2014-Sep-30 20:33N 35°27' E 139°40'0 0.0
2014-Sep-30 09:13N 35°27' E 139°40'0 0.0
2014-Sep-30 08:33N 35°27' E 139°40'0 0.1
2014-Sep-30 07:33N 35°27' E 139°40'0 0.1
2014-Sep-30 06:33N 35°27' E 139°40'0 0.0
2014-Sep-30 05:33N 35°27' E 139°40'0 0.0
2014-Sep-30 04:33N 35°27' E 139°40'0 0.0
2014-Sep-30 03:33N 35°27' E 139°40'1 1.0
2014-Sep-30 02:33N 35°27' E 139°41'2 1.9
2014-Sep-30 01:33N 35°26' E 139°43'0 0.2
2014-Sep-30 00:33N 35°26' E 139°43'4 3.6
2014-Sep-29 23:33N 35°29' E 139°40'2 2.0
2014-Sep-29 22:33N 35°27' E 139°40'1 0.0
2014-Sep-29 08:21N 35°27' E 139°40'1 0.0
2014-Sep-27 23:22N 35°27' E 139°40'6 6.6
2014-Sep-27 22:25N 35°30' E 139°46'0 0.6
2014-Sep-27 21:31N 35°29' E 139°47'2 2.3
2014-Sep-27 20:33N 35°29' E 139°44'1 1.2
2014-Sep-27 19:33N 35°28' E 139°44'0 0.2
2014-Sep-27 18:33N 35°28' E 139°44'0 0.0
2014-Sep-27 17:34N 35°28' E 139°44'0 0.0
2014-Sep-27 16:33N 35°28' E 139°44'0 0.0
2014-Sep-27 15:33N 35°28' E 139°44'3 2.9
2014-Sep-27 14:33N 35°27' E 139°41'2 2.4
2014-Sep-27 13:34N 35°29' E 139°39'1 1.3
2014-Sep-27 12:33N 35°28' E 139°40'1 1.0
2014-Sep-27 11:34N 35°27' E 139°41'2 2.3
2014-Sep-27 10:34N 35°25' E 139°41'1 0.6
2014-Sep-27 09:34N 35°26' E 139°42'0 0.0
2014-Sep-27 08:34N 35°26' E 139°42'2 2.0
2014-Sep-27 07:34N 35°27' E 139°40'6 6.2
2014-Sep-27 06:34N 35°31' E 139°46'6 5.7
2014-Sep-27 05:33N 35°28' E 139°40'0 0.0
2014-Sep-27 04:33N 35°28' E 139°40'0 0.0
2014-Sep-27 03:34N 35°28' E 139°40'1 1.4
2014-Sep-27 02:34N 35°28' E 139°42'2 1.8
2014-Sep-27 01:34N 35°28' E 139°40'2 1.7
2014-Sep-27 00:33N 35°28' E 139°42'0 0.0
2014-Sep-26 23:33N 35°28' E 139°42'1 0.7
2014-Sep-26 22:33N 35°27' E 139°43'3 2.6
2014-Sep-26 21:33N 35°27' E 139°40'1 0.1
2014-Sep-26 09:04N 35°28' E 139°40'1 2.4
2014-Sep-26 08:33N 35°28' E 139°42'2 1.7
2014-Sep-26 07:33N 35°27' E 139°40'0 0.0
2014-Sep-26 06:33N 35°27' E 139°40'0 0.0
2014-Sep-26 05:33N 35°27' E 139°40'0 0.0
2014-Sep-26 04:33N 35°27' E 139°40'3 1.5
2014-Sep-26 02:33N 35°28' E 139°43'1 1.3
2014-Sep-26 01:33N 35°27' E 139°42'2 1.8
2014-Sep-26 00:33N 35°27' E 139°40'0 0.0
2014-Sep-25 23:33N 35°27' E 139°40'0 0.0
2014-Sep-25 22:33N 35°27' E 139°40'1 1.4
2014-Sep-25 21:33N 35°27' E 139°41'1 1.4
2014-Sep-25 20:33N 35°27' E 139°40'0 0.0
2014-Sep-25 08:13N 35°27' E 139°40'0 0.0
2014-Sep-25 07:33N 35°27' E 139°40'1 0.6
2014-Sep-25 06:33N 35°27' E 139°40'3 3.0
2014-Sep-25 05:33N 35°27' E 139°44'4 3.5
2014-Sep-25 04:33N 35°27' E 139°40'0 0.0
2014-Sep-25 03:33N 35°27' E 139°40'0 0.0
2014-Sep-25 02:33N 35°27' E 139°40'0 0.0
2014-Sep-25 01:33N 35°27' E 139°40'0 0.0
2014-Sep-25 00:33N 35°27' E 139°40'0 0.0
2014-Sep-24 23:33N 35°27' E 139°40'7 6.5
2014-Sep-24 22:33N 35°30' E 139°46'6 6.5
2014-Sep-24 21:33N 35°27' E 139°40'  
2014-Sep-22 07:05N 35°27' E 139°40'0 0.0
2014-Sep-22 06:34N 35°27' E 139°40'0 0.0
2014-Sep-22 05:33N 35°27' E 139°40'0 0.0
2014-Sep-22 04:33N 35°27' E 139°40'0 0.3
2014-Sep-22 03:33N 35°27' E 139°40'1 1.1
2014-Sep-22 02:33N 35°26' E 139°41'1 1.1
2014-Sep-22 01:33N 35°27' E 139°40'0 0.0
2014-Sep-22 00:33N 35°27' E 139°40'0 0.0
2014-Sep-21 23:33N 35°27' E 139°40'1 1.2
2014-Sep-21 22:34N 35°26' E 139°41'2 2.1
2014-Sep-21 21:33N 35°27' E 139°39'  
Track history (hours):
 
Tides and Currents Weather Stations Pressure Air Temp Water Temp Dewpoint Dewpoint Depression Visibility Wind Speed Wind Dir Waves Ship Positions

Chitose

Last reported at 2014-Sep-30 21:33 UTC. Time now 2014-Sep-30 22:04 UTC.
Position N 35°27' E 139°42'.

Length 33 m; draft 3.8 m.

Type: Tug. MMSI: 431000953.

Date/timePositionNaut miles runAvg speedWind from/ knotsBaromVisibWave heightAir tempDewpointWater temp
2014-Sep-30 21:33N 35°27' E 139°42'2 1.9
2014-Sep-30 20:33N 35°27' E 139°40'0 0.0
2014-Sep-30 09:13N 35°27' E 139°40'0 0.0
2014-Sep-30 08:33N 35°27' E 139°40'0 0.1
2014-Sep-30 07:33N 35°27' E 139°40'0 0.1
2014-Sep-30 06:33N 35°27' E 139°40'0 0.0
2014-Sep-30 05:33N 35°27' E 139°40'0 0.0
2014-Sep-30 04:33N 35°27' E 139°40'0 0.0
2014-Sep-30 03:33N 35°27' E 139°40'1 1.0
2014-Sep-30 02:33N 35°27' E 139°41'2 1.9
2014-Sep-30 01:33N 35°26' E 139°43'0 0.2
2014-Sep-30 00:33N 35°26' E 139°43'4 3.6
2014-Sep-29 23:33N 35°29' E 139°40'2 2.0
2014-Sep-29 22:33N 35°27' E 139°40'1 0.0
2014-Sep-29 08:21N 35°27' E 139°40'1 0.0
2014-Sep-27 23:22N 35°27' E 139°40'6 6.6
2014-Sep-27 22:25N 35°30' E 139°46'0 0.6
2014-Sep-27 21:31N 35°29' E 139°47'2 2.3
2014-Sep-27 20:33N 35°29' E 139°44'1 1.2
2014-Sep-27 19:33N 35°28' E 139°44'0 0.2
2014-Sep-27 18:33N 35°28' E 139°44'0 0.0
2014-Sep-27 17:34N 35°28' E 139°44'0 0.0
2014-Sep-27 16:33N 35°28' E 139°44'0 0.0
2014-Sep-27 15:33N 35°28' E 139°44'3 2.9
2014-Sep-27 14:33N 35°27' E 139°41'2 2.4
2014-Sep-27 13:34N 35°29' E 139°39'1 1.3
2014-Sep-27 12:33N 35°28' E 139°40'1 1.0
2014-Sep-27 11:34N 35°27' E 139°41'2 2.3
2014-Sep-27 10:34N 35°25' E 139°41'1 0.6
2014-Sep-27 09:34N 35°26' E 139°42'0 0.0
2014-Sep-27 08:34N 35°26' E 139°42'2 2.0
2014-Sep-27 07:34N 35°27' E 139°40'6 6.2
2014-Sep-27 06:34N 35°31' E 139°46'6 5.7
2014-Sep-27 05:33N 35°28' E 139°40'0 0.0
2014-Sep-27 04:33N 35°28' E 139°40'0 0.0
2014-Sep-27 03:34N 35°28' E 139°40'1 1.4
2014-Sep-27 02:34N 35°28' E 139°42'2 1.8
2014-Sep-27 01:34N 35°28' E 139°40'2 1.7
2014-Sep-27 00:33N 35°28' E 139°42'0 0.0
2014-Sep-26 23:33N 35°28' E 139°42'1 0.7
2014-Sep-26 22:33N 35°27' E 139°43'3 2.6
2014-Sep-26 21:33N 35°27' E 139°40'1 0.1
2014-Sep-26 09:04N 35°28' E 139°40'1 2.4
2014-Sep-26 08:33N 35°28' E 139°42'2 1.7
2014-Sep-26 07:33N 35°27' E 139°40'0 0.0
2014-Sep-26 06:33N 35°27' E 139°40'0 0.0
2014-Sep-26 05:33N 35°27' E 139°40'0 0.0
2014-Sep-26 04:33N 35°27' E 139°40'3 1.5
2014-Sep-26 02:33N 35°28' E 139°43'1 1.3
2014-Sep-26 01:33N 35°27' E 139°42'2 1.8
2014-Sep-26 00:33N 35°27' E 139°40'0 0.0
2014-Sep-25 23:33N 35°27' E 139°40'0 0.0
2014-Sep-25 22:33N 35°27' E 139°40'1 1.4
2014-Sep-25 21:33N 35°27' E 139°41'1 1.4
2014-Sep-25 20:33N 35°27' E 139°40'0 0.0
2014-Sep-25 08:13N 35°27' E 139°40'0 0.0
2014-Sep-25 07:33N 35°27' E 139°40'1 0.6
2014-Sep-25 06:33N 35°27' E 139°40'3 3.0
2014-Sep-25 05:33N 35°27' E 139°44'4 3.5
2014-Sep-25 04:33N 35°27' E 139°40'0 0.0
2014-Sep-25 03:33N 35°27' E 139°40'0 0.0
2014-Sep-25 02:33N 35°27' E 139°40'0 0.0
2014-Sep-25 01:33N 35°27' E 139°40'0 0.0
2014-Sep-25 00:33N 35°27' E 139°40'0 0.0
2014-Sep-24 23:33N 35°27' E 139°40'7 6.5
2014-Sep-24 22:33N 35°30' E 139°46'6 6.5
2014-Sep-24 21:33N 35°27' E 139°40'  
2014-Sep-22 07:05N 35°27' E 139°40'0 0.0
2014-Sep-22 06:34N 35°27' E 139°40'0 0.0
2014-Sep-22 05:33N 35°27' E 139°40'0 0.0
2014-Sep-22 04:33N 35°27' E 139°40'0 0.3
2014-Sep-22 03:33N 35°27' E 139°40'1 1.1
2014-Sep-22 02:33N 35°26' E 139°41'1 1.1
2014-Sep-22 01:33N 35°27' E 139°40'0 0.0
2014-Sep-22 00:33N 35°27' E 139°40'0 0.0
2014-Sep-21 23:33N 35°27' E 139°40'1 1.2
2014-Sep-21 22:34N 35°26' E 139°41'2 2.1
2014-Sep-21 21:33N 35°27' E 139°39'  

Dump ship's entire track history